BIENTÔT MET'MAP
version 2.0 !

Prévue avant fin octobre,
la nouvelle version sera
plus belle, plus complète
et hébergée sur un serveur
3 fois plus puissant...
et toujours gratuite !


Pas compatible ?
Essayez la version Mobile !

SE CONNECTER : | S'inscrire | Disclaimer | Découvrir Orbifly |
Code OACI :

TAF - LGEL Elefsis - 29 Nov 2020 05:17 UTC - Data Source NOAA   


- Altitude de l'aérodrome : 143 ft
- Pas de NOTAMs connus.


LGEL - Elefsis

Dernier METAR connu : 2015/08/11 07:50 LGEL 110750Z 18005KT 9999 FEW030 31/14 Q1011
TAF TAF LGEL
Valide du 29 à 00h jusqu'au 30 à 00h UTC


282300Z 2900/2924 VRB05KT 9999 SCT020
BECMG 2900/2902 18015KT
TEMPO 2909/2917 18015G25KT
PROB30
TEMPO 2907/2924 5000 RA BKN020 BKN070
PROB30
TEMPO 2910/2917 5000 TSRA FEW018CB BKN020 BKN070

Source NOAA


MET'MAP, la Météo Aéronautique d'un coup d'oeil ! - Copyright ORBIFLY Décembre 2007

Développement & Programmation : Alexandra Zaïnal
Co-Développement : Marc-Olivier Méhu
Soutien technique & logistique : Manuel Goepfert
Conception & Financement : Baudouin d'Aumeries